Time,TemperatureF,DewpointF,PressureIn,WindDirection,WindDirectionDegrees,WindSpeedMPH,WindSpeedGustMPH,Humidity,HourlyPrecipIn,Conditions,Clouds,dailyrainin,SoftwareType,DateUTC
2013-01-02 00:05:00,22.9,5.3,29.88,North,0,0.0,3.0,56,-99.99,,,-99.99,PWS SA v1.10,2013-01-02 05:05:00,
2013-01-02 00:10:00,23.0,5.3,29.88,North,0,0.0,3.0,56,-99.99,,,-99.99,PWS SA v1.10,2013-01-02 05:10:00,
2013-01-02 00:15:00,22.7,5.3,29.88,SW,217,1.7,3.0,56,-99.99,,,-99.99,PWS SA v1.10,2013-01-02 05:15:00,
2013-01-02 00:20:00,22.9,6.0,29.88,North,0,0.0,3.0,57,-99.99,,,-99.99,PWS SA v1.10,2013-01-02 05:20:00,
2013-01-02 00:30:00,23.0,5.2,29.89,North,0,0.0,3.0,55,-99.99,,,-99.99,PWS SA v1.10,2013-01-02 05:30:00,
2013-01-02 00:40:00,22.7,5.5,29.89,North,0,0.0,0.0,57,-99.99,,,-99.99,PWS SA v1.10,2013-01-02 05:40:00,
2013-01-02 00:45:00,22.5,5.5,29.89,North,0,0.0,0.0,57,-99.99,,,-99.99,PWS SA v1.10,2013-01-02 05:45:00,
2013-01-02 00:50:00,21.9,5.1,29.89,North,0,0.0,0.0,58,-99.99,,,-99.99,PWS SA v1.10,2013-01-02 05:50:00,
2013-01-02 00:55:00,21.6,4.7,29.88,North,0,0.0,1.0,58,-99.99,,,-99.99,PWS SA v1.10,2013-01-02 05:55:00,
2013-01-02 01:00:00,20.8,3.9,29.88,NNW,338,1.7,5.0,57,-99.99,,,-99.99,PWS SA v1.10,2013-01-02 06:00:00,
2013-01-02 01:05:00,20.7,4.2,29.89,West,263,1.7,5.0,58,-99.99,,,-99.99,PWS SA v1.10,2013-01-02 06:05:00,
2013-01-02 01:15:00,21.0,3.5,29.89,North,0,0.0,3.0,56,-99.99,,,-99.99,PWS SA v1.10,2013-01-02 06:15:00,
2013-01-02 01:25:00,21.7,4.3,29.89,North,0,0.0,3.0,56,-99.99,,,-99.99,PWS SA v1.10,2013-01-02 06:25:00,
2013-01-02 01:30:00,21.5,4.2,29.89,North,0,0.0,0.0,57,-99.99,,,-99.99,PWS SA v1.10,2013-01-02 06:30:00,
2013-01-02 01:35:00,21.3,5.5,29.89,North,0,0.0,0.0,61,-99.99,,,-99.99,PWS SA v1.10,2013-01-02 06:35:00,
2013-01-02 01:45:00,21.1,4.6,29.90,North,0,0.0,0.0,58,-99.99,,,-99.99,PWS SA v1.10,2013-01-02 06:45:00,
2013-01-02 01:50:00,20.6,4.4,29.90,North,0,0.0,0.0,59,-99.99,,,-99.99,PWS SA v1.10,2013-01-02 06:50:00,
2013-01-02 01:55:00,20.8,5.2,29.90,West,259,1.7,1.7,61,-99.99,,,-99.99,PWS SA v1.10,2013-01-02 06:55:00,
2013-01-02 02:05:00,20.3,3.2,29.91,North,0,0.0,3.0,57,-99.99,,,-99.99,PWS SA v1.10,2013-01-02 07:05:00,
2013-01-02 02:10:00,20.3,3.6,29.91,North,0,0.0,3.0,58,-99.99,,,-99.99,PWS SA v1.10,2013-01-02 07:10:00,
2013-01-02 02:15:00,20.5,3.2,29.91,North,0,0.0,3.0,56,-99.99,,,-99.99,PWS SA v1.10,2013-01-02 07:15:00,
2013-01-02 02:20:00,20.7,3.4,29.91,North,0,0.0,1.0,56,-99.99,,,-99.99,PWS SA v1.10,2013-01-02 07:20:00,
2013-01-02 02:25:00,20.6,3.6,29.91,North,0,0.0,0.0,57,-99.99,,,-99.99,PWS SA v1.10,2013-01-02 07:25:00,
2013-01-02 02:30:00,20.5,3.6,29.91,North,0,0.0,0.0,57,-99.99,,,-99.99,PWS SA v1.10,2013-01-02 07:30:00,
2013-01-02 02:35:00,20.5,3.4,29.91,North,0,0.0,0.0,57,-99.99,,,-99.99,PWS SA v1.10,2013-01-02 07:35:00,
2013-01-02 02:40:00,20.8,3.9,29.91,North,0,0.0,0.0,57,-99.99,,,-99.99,PWS SA v1.10,2013-01-02 07:40:00,
2013-01-02 02:45:00,20.5,3.7,29.91,North,0,0.0,0.0,58,-99.99,,,-99.99,PWS SA v1.10,2013-01-02 07:45:00,
2013-01-02 02:50:00,20.4,4.0,29.91,North,0,0.0,1.0,59,-99.99,,,-99.99,PWS SA v1.10,2013-01-02 07:50:00,
2013-01-02 03:00:00,20.1,3.6,29.91,North,0,0.0,1.0,58,-99.99,,,-99.99,PWS SA v1.10,2013-01-02 08:00:00,
2013-01-02 03:05:00,20.3,4.6,29.92,North,0,0.0,0.0,61,-99.99,,,-99.99,PWS SA v1.10,2013-01-02 08:05:00,
2013-01-02 03:15:00,19.9,4.0,29.92,North,0,0.0,0.0,60,-99.99,,,-99.99,PWS SA v1.10,2013-01-02 08:15:00,
2013-01-02 03:20:00,19.7,4.5,29.92,North,0,0.0,0.0,62,-99.99,,,-99.99,PWS SA v1.10,2013-01-02 08:20:00,
2013-01-02 03:25:00,19.5,4.3,29.91,North,0,0.0,0.0,62,-99.99,,,-99.99,PWS SA v1.10,2013-01-02 08:25:00,
2013-01-02 03:30:00,19.2,3.8,29.91,North,0,0.0,0.0,61,-99.99,,,-99.99,PWS SA v1.10,2013-01-02 08:30:00,
2013-01-02 03:35:00,19.1,4.4,29.91,North,0,0.0,0.0,63,-99.99,,,-99.99,PWS SA v1.10,2013-01-02 08:35:00,
2013-01-02 03:40:00,18.8,4.3,29.90,North,0,0.0,0.0,64,-99.99,,,-99.99,PWS SA v1.10,2013-01-02 08:40:00,
2013-01-02 03:50:00,18.4,4.6,29.90,North,0,0.0,0.0,66,-99.99,,,-99.99,PWS SA v1.10,2013-01-02 08:50:00,
2013-01-02 03:55:00,18.1,4.4,29.90,North,0,0.0,0.0,66,-99.99,,,-99.99,PWS SA v1.10,2013-01-02 08:55:00,
2013-01-02 04:00:00,18.0,4.6,29.90,North,0,0.0,0.0,67,-99.99,,,-99.99,PWS SA v1.10,2013-01-02 09:00:00,
2013-01-02 04:05:00,17.7,4.0,29.90,North,0,0.0,0.0,66,-99.99,,,-99.99,PWS SA v1.10,2013-01-02 09:05:00,
2013-01-02 04:10:00,17.7,4.4,29.90,North,0,0.0,0.0,67,-99.99,,,-99.99,PWS SA v1.10,2013-01-02 09:10:00,
2013-01-02 04:20:00,17.2,3.9,29.89,North,0,0.0,0.0,67,-99.99,,,-99.99,PWS SA v1.10,2013-01-02 09:20:00,
2013-01-02 04:30:00,17.2,4.2,29.89,North,0,0.0,0.0,68,-99.99,,,-99.99,PWS SA v1.10,2013-01-02 09:30:00,
2013-01-02 04:40:00,16.8,3.9,29.89,North,0,0.0,0.0,68,-99.99,,,-99.99,PWS SA v1.10,2013-01-02 09:40:00,
2013-01-02 04:45:00,16.8,4.3,29.89,North,0,0.0,0.0,70,-99.99,,,-99.99,PWS SA v1.10,2013-01-02 09:45:00,
2013-01-02 04:50:00,16.6,4.1,29.89,North,0,0.0,0.0,69,-99.99,,,-99.99,PWS SA v1.10,2013-01-02 09:50:00,
2013-01-02 04:55:00,16.5,4.3,29.89,North,0,0.0,0.0,70,-99.99,,,-99.99,PWS SA v1.10,2013-01-02 09:55:00,
2013-01-02 05:00:00,16.3,3.8,29.89,North,0,0.0,0.0,69,-99.99,,,-99.99,PWS SA v1.10,2013-01-02 10:00:00,
2013-01-02 05:05:00,16.4,3.9,29.89,North,0,0.0,0.0,69,-99.99,,,-99.99,PWS SA v1.10,2013-01-02 10:05:00,
2013-01-02 05:10:00,16.4,4.3,29.89,North,0,0.0,0.0,71,-99.99,,,-99.99,PWS SA v1.10,2013-01-02 10:10:00,
2013-01-02 05:15:00,16.3,4.2,29.89,North,0,0.0,0.0,71,-99.99,,,-99.99,PWS SA v1.10,2013-01-02 10:15:00,
2013-01-02 05:20:00,16.2,4.3,29.89,North,0,0.0,0.0,72,-99.99,,,-99.99,PWS SA v1.10,2013-01-02 10:20:00,
2013-01-02 05:25:00,16.2,4.2,29.89,North,0,0.0,0.0,71,-99.99,,,-99.99,PWS SA v1.10,2013-01-02 10:25:00,
2013-01-02 05:30:00,16.1,4.1,29.89,North,0,0.0,0.0,71,-99.99,,,-99.99,PWS SA v1.10,2013-01-02 10:30:00,
2013-01-02 05:35:00,16.1,4.3,29.90,North,0,0.0,0.0,72,-99.99,,,-99.99,PWS SA v1.10,2013-01-02 10:35:00,
2013-01-02 05:40:00,16.2,4.0,29.89,NW,325,1.7,1.7,71,-99.99,,,-99.99,PWS SA v1.10,2013-01-02 10:40:00,
2013-01-02 05:45:00,16.0,4.3,29.89,North,0,0.0,1.0,72,-99.99,,,-99.99,PWS SA v1.10,2013-01-02 10:45:00,
2013-01-02 05:50:00,16.4,5.0,29.89,North,0,0.0,1.0,73,-99.99,,,-99.99,PWS SA v1.10,2013-01-02 10:50:00,
2013-01-02 05:55:00,16.8,4.5,29.89,North,0,0.0,0.0,70,-99.99,,,-99.99,PWS SA v1.10,2013-01-02 10:55:00,
2013-01-02 06:00:00,16.6,4.8,29.89,North,0,0.0,0.0,72,-99.99,,,-99.99,PWS SA v1.10,2013-01-02 11:00:00,
2013-01-02 06:05:00,16.9,5.1,29.90,North,0,0.0,0.0,72,-99.99,,,-99.99,PWS SA v1.10,2013-01-02 11:05:00,
2013-01-02 06:10:00,16.9,4.7,29.90,North,0,0.0,0.0,70,-99.99,,,-99.99,PWS SA v1.10,2013-01-02 11:10:00,
2013-01-02 06:15:00,16.9,5.1,29.89,North,0,0.0,1.0,72,-99.99,,,-99.99,PWS SA v1.10,2013-01-02 11:15:00,
2013-01-02 06:20:00,16.9,4.5,29.89,North,0,0.0,1.0,70,-99.99,,,-99.99,PWS SA v1.10,2013-01-02 11:20:00,
2013-01-02 06:25:00,16.7,4.6,29.89,North,0,0.0,1.0,71,-99.99,,,-99.99,PWS SA v1.10,2013-01-02 11:25:00,
2013-01-02 06:30:00,16.6,4.5,29.90,North,0,0.0,0.0,71,-99.99,,,-99.99,PWS SA v1.10,2013-01-02 11:30:00,
2013-01-02 06:35:00,16.5,5.0,29.90,North,0,0.0,0.0,73,-99.99,,,-99.99,PWS SA v1.10,2013-01-02 11:35:00,
2013-01-02 06:40:00,16.3,4.7,29.90,North,0,0.0,0.0,73,-99.99,,,-99.99,PWS SA v1.10,2013-01-02 11:40:00,
2013-01-02 06:45:00,16.1,4.3,29.90,North,0,0.0,0.0,72,-99.99,,,-99.99,PWS SA v1.10,2013-01-02 11:45:00,
2013-01-02 06:50:00,15.9,4.4,29.89,North,0,0.0,0.0,73,-99.99,,,-99.99,PWS SA v1.10,2013-01-02 11:50:00,
2013-01-02 06:55:00,15.8,4.7,29.89,North,0,0.0,0.0,74,-99.99,,,-99.99,PWS SA v1.10,2013-01-02 11:55:00,
2013-01-02 07:00:00,15.8,4.7,29.89,North,0,0.0,0.0,74,-99.99,,,-99.99,PWS SA v1.10,2013-01-02 12:00:00,
2013-01-02 07:05:00,15.8,4.7,29.89,North,0,0.0,0.0,74,-99.99,,,-99.99,PWS SA v1.10,2013-01-02 12:05:00,
2013-01-02 07:10:00,15.9,4.7,29.89,North,0,0.0,0.0,74,-99.99,,,-99.99,PWS SA v1.10,2013-01-02 12:10:00,
2013-01-02 07:15:00,15.9,5.1,29.89,North,0,0.0,0.0,75,-99.99,,,-99.99,PWS SA v1.10,2013-01-02 12:15:00,
2013-01-02 07:20:00,15.9,5.0,29.89,North,0,0.0,0.0,75,-99.99,,,-99.99,PWS SA v1.10,2013-01-02 12:20:00,
2013-01-02 07:25:00,15.8,5.2,29.89,North,0,0.0,0.0,76,-99.99,,,-99.99,PWS SA v1.10,2013-01-02 12:25:00,
2013-01-02 07:30:00,16.0,5.7,29.89,North,0,0.0,0.0,77,-99.99,,,-99.99,PWS SA v1.10,2013-01-02 12:30:00,
2013-01-02 07:35:00,16.1,5.4,29.89,North,0,0.0,1.0,76,-99.99,,,-99.99,PWS SA v1.10,2013-01-02 12:35:00,
2013-01-02 07:45:00,16.1,5.2,29.89,North,0,0.0,1.0,75,-99.99,,,-99.99,PWS SA v1.10,2013-01-02 12:45:00,
2013-01-02 07:55:00,16.1,5.2,29.89,North,0,0.0,0.0,75,-99.99,,,-99.99,PWS SA v1.10,2013-01-02 12:55:00,
2013-01-02 08:05:00,16.2,5.5,29.89,North,0,0.0,0.0,76,-99.99,,,-99.99,PWS SA v1.10,2013-01-02 13:05:00,
2013-01-02 08:15:00,17.0,6.3,29.89,WSW,256,1.7,1.7,76,-99.99,,,-99.99,PWS SA v1.10,2013-01-02 13:15:00,
2013-01-02 08:25:00,18.1,6.9,29.89,North,0,0.0,1.0,74,-99.99,,,-99.99,PWS SA v1.10,2013-01-02 13:25:00,
2013-01-02 08:30:00,18.8,6.7,29.89,North,0,0.0,1.0,71,-99.99,,,-99.99,PWS SA v1.10,2013-01-02 13:30:00,
2013-01-02 08:35:00,18.8,6.5,29.88,SW,236,1.7,1.7,70,-99.99,,,-99.99,PWS SA v1.10,2013-01-02 13:35:00,
2013-01-02 08:40:00,19.4,6.5,29.88,WSW,248,3.4,3.4,69,-99.99,,,-99.99,PWS SA v1.10,2013-01-02 13:40:00,
2013-01-02 08:45:00,19.8,7.0,29.88,SW,229,1.7,5.0,69,-99.99,,,-99.99,PWS SA v1.10,2013-01-02 13:45:00,
2013-01-02 08:50:00,20.0,6.9,29.89,SW,222,1.7,5.0,68,-99.99,,,-99.99,PWS SA v1.10,2013-01-02 13:50:00,
2013-01-02 08:55:00,20.5,7.6,29.88,North,0,0.0,5.0,69,-99.99,,,-99.99,PWS SA v1.10,2013-01-02 13:55:00,
2013-01-02 09:00:00,20.6,7.1,29.89,WNW,285,1.7,5.0,67,-99.99,,,-99.99,PWS SA v1.10,2013-01-02 14:00:00,
2013-01-02 09:05:00,20.6,6.5,29.88,WSW,245,3.4,8.0,65,-99.99,,,-99.99,PWS SA v1.10,2013-01-02 14:05:00,
2013-01-02 09:10:00,21.2,6.8,29.89,West,267,5.1,8.0,64,-99.99,,,-99.99,PWS SA v1.10,2013-01-02 14:10:00,
2013-01-02 09:15:00,21.5,7.0,29.89,North,0,0.0,8.0,64,-99.99,,,-99.99,PWS SA v1.10,2013-01-02 14:15:00,
2013-01-02 09:20:00,22.1,6.9,29.89,North,0,0.0,5.0,62,-99.99,,,-99.99,PWS SA v1.10,2013-01-02 14:20:00,
2013-01-02 09:25:00,21.9,6.5,29.89,SW,234,5.1,5.1,62,-99.99,,,-99.99,PWS SA v1.10,2013-01-02 14:25:00,
2013-01-02 09:30:00,22.3,7.7,29.88,SW,225,3.4,5.0,64,-99.99,,,-99.99,PWS SA v1.10,2013-01-02 14:30:00,
2013-01-02 09:35:00,23.0,8.0,29.89,WSW,250,1.7,5.0,63,-99.99,,,-99.99,PWS SA v1.10,2013-01-02 14:35:00,
2013-01-02 09:40:00,22.8,7.5,29.89,WSW,251,5.1,5.1,62,-99.99,,,-99.99,PWS SA v1.10,2013-01-02 14:40:00,
2013-01-02 09:45:00,23.3,7.9,29.89,WSW,247,3.4,11.0,62,-99.99,,,-99.99,PWS SA v1.10,2013-01-02 14:45:00,
2013-01-02 09:50:00,23.3,7.8,29.89,West,268,5.1,11.0,61,-99.99,,,-99.99,PWS SA v1.10,2013-01-02 14:50:00,
2013-01-02 09:55:00,23.6,7.6,29.89,North,0,0.0,11.0,60,-99.99,,,-99.99,PWS SA v1.10,2013-01-02 14:55:00,
2013-01-02 10:00:00,23.9,8.3,29.90,North,0,0.0,11.0,61,-99.99,,,-99.99,PWS SA v1.10,2013-01-02 15:00:00,
2013-01-02 10:05:00,24.2,8.1,29.90,WNW,287,1.7,11.0,60,-99.99,,,-99.99,PWS SA v1.10,2013-01-02 15:05:00,
2013-01-02 10:10:00,24.1,8.2,29.90,North,0,0.0,11.0,60,-99.99,,,-99.99,PWS SA v1.10,2013-01-02 15:10:00,
2013-01-02 10:20:00,25.1,8.6,29.90,WSW,255,5.1,6.0,59,-99.99,,,-99.99,PWS SA v1.10,2013-01-02 15:20:00,
2013-01-02 10:25:00,25.1,8.2,29.90,NW,316,3.4,6.0,58,-99.99,,,-99.99,PWS SA v1.10,2013-01-02 15:25:00,
2013-01-02 10:30:00,25.5,8.9,29.90,WSW,247,1.7,6.0,59,-99.99,,,-99.99,PWS SA v1.10,2013-01-02 15:30:00,
2013-01-02 10:35:00,26.0,9.9,29.89,WSW,251,1.7,6.0,60,-99.99,,,-99.99,PWS SA v1.10,2013-01-02 15:35:00,
2013-01-02 10:40:00,26.6,9.6,29.90,West,271,8.5,8.5,58,-99.99,,,-99.99,PWS SA v1.10,2013-01-02 15:40:00,
2013-01-02 10:45:00,27.1,9.8,29.89,North,0,0.0,8.0,57,-99.99,,,-99.99,PWS SA v1.10,2013-01-02 15:45:00,
2013-01-02 10:55:00,27.7,14.2,29.89,North,0,0.0,10.0,57,-99.99,,,-99.99,PWS SA v1.10,2013-01-02 15:55:00,
2013-01-02 11:05:00,27.3,9.4,29.88,WNW,295,1.7,8.0,56,-99.99,,,-99.99,PWS SA v1.10,2013-01-02 16:05:00,
2013-01-02 11:10:00,27.3,9.8,29.88,NW,319,3.4,8.0,57,-99.99,,,-99.99,PWS SA v1.10,2013-01-02 16:10:00,
2013-01-02 11:20:00,27.8,14.6,29.88,NW,314,3.4,6.0,57,-99.99,,,-99.99,PWS SA v1.10,2013-01-02 16:20:00,
2013-01-02 11:25:00,27.8,14.8,29.87,North,0,0.0,12.0,57,-99.99,,,-99.99,PWS SA v1.10,2013-01-02 16:25:00,
2013-01-02 11:30:00,28.8,15.3,29.87,North,0,0.0,12.0,56,-99.99,,,-99.99,PWS SA v1.10,2013-01-02 16:30:00,
2013-01-02 11:35:00,28.3,15.0,29.87,SW,234,8.5,12.0,56,-99.99,,,-99.99,PWS SA v1.10,2013-01-02 16:35:00,
2013-01-02 11:40:00,28.5,14.7,29.87,NW,316,1.7,12.0,55,-99.99,,,-99.99,PWS SA v1.10,2013-01-02 16:40:00,
2013-01-02 11:50:00,29.5,15.9,29.86,SW,231,8.5,8.5,56,-99.99,,,-99.99,PWS SA v1.10,2013-01-02 16:50:00,
2013-01-02 11:55:00,29.4,15.4,29.86,SW,222,1.7,8.0,55,-99.99,,,-99.99,PWS SA v1.10,2013-01-02 16:55:00,
2013-01-02 12:05:00,29.7,15.9,29.85,WSW,241,3.4,10.0,55,-99.99,,,-99.99,PWS SA v1.10,2013-01-02 17:05:00,
2013-01-02 12:10:00,30.1,16.4,29.84,North,0,0.0,12.0,56,-99.99,,,-99.99,PWS SA v1.10,2013-01-02 17:10:00,
2013-01-02 12:20:00,30.1,15.9,29.85,North,0,0.0,12.0,54,-99.99,,,-99.99,PWS SA v1.10,2013-01-02 17:20:00,
2013-01-02 12:25:00,30.3,15.9,29.85,North,0,0.0,6.0,54,-99.99,,,-99.99,PWS SA v1.10,2013-01-02 17:25:00,
2013-01-02 12:30:00,30.3,16.1,29.85,North,0,0.0,13.0,54,-99.99,,,-99.99,PWS SA v1.10,2013-01-02 17:30:00,
2013-01-02 12:40:00,30.4,16.3,29.85,WNW,285,1.7,13.0,55,-99.99,,,-99.99,PWS SA v1.10,2013-01-02 17:40:00,
2013-01-02 12:45:00,30.3,16.6,29.85,NNW,341,3.4,8.0,56,-99.99,,,-99.99,PWS SA v1.10,2013-01-02 17:45:00,
2013-01-02 12:55:00,29.4,15.2,29.85,North,354,6.8,6.8,54,-99.99,,,-99.99,PWS SA v1.10,2013-01-02 17:55:00,
2013-01-02 13:00:00,29.5,15.6,29.85,SW,232,10.2,11.0,56,-99.99,,,-99.99,PWS SA v1.10,2013-01-02 18:00:00,
2013-01-02 13:05:00,30.0,15.9,29.85,SSW,198,15.4,15.4,55,-99.99,,,-99.99,PWS SA v1.10,2013-01-02 18:05:00,
2013-01-02 13:10:00,30.1,15.7,29.85,NE,49,3.4,15.0,55,-99.99,,,-99.99,PWS SA v1.10,2013-01-02 18:10:00,
2013-01-02 13:15:00,30.5,16.1,29.85,West,267,3.4,15.0,54,-99.99,,,-99.99,PWS SA v1.10,2013-01-02 18:15:00,
2013-01-02 13:25:00,29.9,15.3,29.85,WSW,252,11.9,11.9,53,-99.99,,,-99.99,PWS SA v1.10,2013-01-02 18:25:00,
2013-01-02 13:30:00,30.8,16.3,29.85,NNW,347,3.4,11.0,54,-99.99,,,-99.99,PWS SA v1.10,2013-01-02 18:30:00,
2013-01-02 13:35:00,30.3,16.1,29.85,North,0,0.0,11.0,54,-99.99,,,-99.99,PWS SA v1.10,2013-01-02 18:35:00,
2013-01-02 13:40:00,30.0,16.0,29.85,West,269,5.1,10.0,55,-99.99,,,-99.99,PWS SA v1.10,2013-01-02 18:40:00,
2013-01-02 13:45:00,30.0,16.1,29.85,West,269,3.4,8.0,55,-99.99,,,-99.99,PWS SA v1.10,2013-01-02 18:45:00,
2013-01-02 13:50:00,30.4,16.3,29.85,West,267,1.7,8.0,55,-99.99,,,-99.99,PWS SA v1.10,2013-01-02 18:50:00,
2013-01-02 14:00:00,30.7,15.9,29.85,NW,305,6.8,8.0,53,-99.99,,,-99.99,PWS SA v1.10,2013-01-02 19:00:00,
2013-01-02 14:05:00,30.9,16.8,29.86,North,0,0.0,8.0,55,-99.99,,,-99.99,PWS SA v1.10,2013-01-02 19:05:00,
2013-01-02 14:10:00,30.9,15.8,29.87,West,267,6.8,8.0,53,-99.99,,,-99.99,PWS SA v1.10,2013-01-02 19:10:00,
2013-01-02 14:15:00,30.9,16.0,29.87,WSW,244,5.1,6.0,53,-99.99,,,-99.99,PWS SA v1.10,2013-01-02 19:15:00,
2013-01-02 14:20:00,31.2,16.4,29.87,West,271,1.7,6.0,53,-99.99,,,-99.99,PWS SA v1.10,2013-01-02 19:20:00,
2013-01-02 14:25:00,31.4,17.5,29.86,NW,304,1.7,6.0,55,-99.99,,,-99.99,PWS SA v1.10,2013-01-02 19:25:00,
2013-01-02 14:30:00,32.2,20.0,29.87,SSW,204,5.1,6.0,60,-99.99,,,-99.99,PWS SA v1.10,2013-01-02 19:30:00,
2013-01-02 14:35:00,31.9,18.3,29.87,SSW,213,1.7,8.0,56,-99.99,,,-99.99,PWS SA v1.10,2013-01-02 19:35:00,
2013-01-02 14:40:00,31.6,16.8,29.88,NW,323,5.1,8.0,53,-99.99,,,-99.99,PWS SA v1.10,2013-01-02 19:40:00,
2013-01-02 14:45:00,31.3,14.8,29.88,WSW,255,5.1,8.0,49,-99.99,,,-99.99,PWS SA v1.10,2013-01-02 19:45:00,
2013-01-02 14:50:00,30.9,18.1,29.89,NW,320,3.4,18.0,58,-99.99,,,-99.99,PWS SA v1.10,2013-01-02 19:50:00,
2013-01-02 14:55:00,30.1,16.2,29.88,NW,324,1.7,18.0,55,-99.99,,,-99.99,PWS SA v1.10,2013-01-02 19:55:00,
2013-01-02 15:05:00,30.1,15.6,29.89,North,11,5.1,12.0,53,-99.99,,,-99.99,PWS SA v1.10,2013-01-02 20:05:00,
2013-01-02 15:10:00,30.7,14.8,29.89,North,0,0.0,17.0,51,-99.99,,,-99.99,PWS SA v1.10,2013-01-02 20:10:00,
2013-01-02 15:15:00,30.3,14.2,29.89,NNE,24,1.7,17.0,50,-99.99,,,-99.99,PWS SA v1.10,2013-01-02 20:15:00,
2013-01-02 15:20:00,30.5,15.3,29.89,West,261,5.1,17.0,52,-99.99,,,-99.99,PWS SA v1.10,2013-01-02 20:20:00,
2013-01-02 15:25:00,30.3,14.2,29.90,North,353,10.2,10.2,50,-99.99,,,-99.99,PWS SA v1.10,2013-01-02 20:25:00,
2013-01-02 15:30:00,30.3,15.1,29.90,North,0,0.0,10.0,52,-99.99,,,-99.99,PWS SA v1.10,2013-01-02 20:30:00,
2013-01-02 15:35:00,30.7,15.4,29.91,NNW,332,5.1,10.0,52,-99.99,,,-99.99,PWS SA v1.10,2013-01-02 20:35:00,
2013-01-02 15:40:00,30.5,14.5,29.91,NW,307,1.7,5.0,50,-99.99,,,-99.99,PWS SA v1.10,2013-01-02 20:40:00,
2013-01-02 15:45:00,29.8,13.8,29.91,North,0,0.0,5.0,50,-99.99,,,-99.99,PWS SA v1.10,2013-01-02 20:45:00,
2013-01-02 15:50:00,29.6,13.7,29.91,NNW,337,3.4,6.0,51,-99.99,,,-99.99,PWS SA v1.10,2013-01-02 20:50:00,
2013-01-02 15:55:00,29.4,13.7,29.92,NE,39,6.8,6.8,51,-99.99,,,-99.99,PWS SA v1.10,2013-01-02 20:55:00,
2013-01-02 16:00:00,28.9,13.6,29.92,North,0,0.0,6.0,52,-99.99,,,-99.99,PWS SA v1.10,2013-01-02 21:00:00,
2013-01-02 16:05:00,28.5,13.5,29.93,NNW,329,1.7,10.0,53,-99.99,,,-99.99,PWS SA v1.10,2013-01-02 21:05:00,
2013-01-02 16:10:00,28.2,12.8,29.92,NW,322,3.4,10.0,51,-99.99,,,-99.99,PWS SA v1.10,2013-01-02 21:10:00,
2013-01-02 16:15:00,28.2,13.5,29.92,NNW,327,3.4,10.0,53,-99.99,,,-99.99,PWS SA v1.10,2013-01-02 21:15:00,
2013-01-02 16:20:00,28.1,13.1,29.92,North,8,3.4,10.0,53,-99.99,,,-99.99,PWS SA v1.10,2013-01-02 21:20:00,
2013-01-02 16:25:00,27.4,8.8,29.93,West,280,6.8,12.0,54,-99.99,,,-99.99,PWS SA v1.10,2013-01-02 21:25:00,
2013-01-02 16:30:00,27.6,8.7,29.93,North,0,0.0,12.0,53,-99.99,,,-99.99,PWS SA v1.10,2013-01-02 21:30:00,
2013-01-02 16:35:00,27.6,12.7,29.93,North,0,0.0,12.0,53,-99.99,,,-99.99,PWS SA v1.10,2013-01-02 21:35:00,
2013-01-02 16:40:00,27.3,12.7,29.93,West,269,5.1,10.0,53,-99.99,,,-99.99,PWS SA v1.10,2013-01-02 21:40:00,
2013-01-02 16:45:00,27.2,7.9,29.94,WSW,257,6.8,10.0,52,-99.99,,,-99.99,PWS SA v1.10,2013-01-02 21:45:00,
2013-01-02 16:50:00,27.6,12.9,29.95,North,0,0.0,6.0,53,-99.99,,,-99.99,PWS SA v1.10,2013-01-02 21:50:00,
2013-01-02 16:55:00,28.3,13.1,29.95,North,0,0.0,6.0,52,-99.99,,,-99.99,PWS SA v1.10,2013-01-02 21:55:00,
2013-01-02 17:00:00,27.3,13.8,29.95,NNW,333,3.4,3.4,56,-99.99,,,-99.99,PWS SA v1.10,2013-01-02 22:00:00,
2013-01-02 17:05:00,27.0,8.9,29.94,NNW,346,3.4,8.0,55,-99.99,,,-99.99,PWS SA v1.10,2013-01-02 22:05:00,
2013-01-02 17:10:00,26.8,8.7,29.95,NW,322,3.4,8.0,55,-99.99,,,-99.99,PWS SA v1.10,2013-01-02 22:10:00,
2013-01-02 17:15:00,26.7,8.2,29.95,WNW,293,3.4,8.0,54,-99.99,,,-99.99,PWS SA v1.10,2013-01-02 22:15:00,
2013-01-02 17:20:00,26.8,8.3,29.96,North,0,0.0,10.0,54,-99.99,,,-99.99,PWS SA v1.10,2013-01-02 22:20:00,
2013-01-02 17:25:00,26.8,9.2,29.95,North,0,0.0,10.0,56,-99.99,,,-99.99,PWS SA v1.10,2013-01-02 22:25:00,
2013-01-02 17:30:00,26.9,9.3,29.96,North,0,0.0,10.0,56,-99.99,,,-99.99,PWS SA v1.10,2013-01-02 22:30:00,
2013-01-02 17:35:00,27.0,8.7,29.96,North,0,0.0,6.0,55,-99.99,,,-99.99,PWS SA v1.10,2013-01-02 22:35:00,
2013-01-02 17:40:00,26.7,8.2,29.96,North,0,0.0,6.0,54,-99.99,,,-99.99,PWS SA v1.10,2013-01-02 22:40:00,
2013-01-02 17:45:00,26.9,9.6,29.96,North,0,0.0,6.0,57,-99.99,,,-99.99,PWS SA v1.10,2013-01-02 22:45:00,
2013-01-02 17:50:00,27.1,9.7,29.96,North,0,0.0,3.0,57,-99.99,,,-99.99,PWS SA v1.10,2013-01-02 22:50:00,
2013-01-02 17:55:00,26.7,9.9,29.96,North,0,0.0,0.0,58,-99.99,,,-99.99,PWS SA v1.10,2013-01-02 22:55:00,
2013-01-02 18:00:00,26.7,9.1,29.97,North,0,0.0,0.0,57,-99.99,,,-99.99,PWS SA v1.10,2013-01-02 23:00:00,
2013-01-02 18:05:00,26.4,10.1,29.97,North,0,0.0,0.0,60,-99.99,,,-99.99,PWS SA v1.10,2013-01-02 23:05:00,
2013-01-02 18:10:00,26.3,11.2,29.97,North,0,0.0,1.0,63,-99.99,,,-99.99,PWS SA v1.10,2013-01-02 23:10:00,
2013-01-02 18:15:00,26.1,11.3,29.97,North,0,0.0,1.0,64,-99.99,,,-99.99,PWS SA v1.10,2013-01-02 23:15:00,
2013-01-02 18:20:00,25.8,12.0,29.97,North,0,0.0,1.0,67,-99.99,,,-99.99,PWS SA v1.10,2013-01-02 23:20:00,
2013-01-02 18:25:00,25.7,11.4,29.98,North,0,0.0,1.0,65,-99.99,,,-99.99,PWS SA v1.10,2013-01-02 23:25:00,
2013-01-02 18:30:00,25.5,11.3,29.98,North,0,0.0,1.0,66,-99.99,,,-99.99,PWS SA v1.10,2013-01-02 23:30:00,
2013-01-02 18:35:00,25.3,11.8,29.98,North,0,0.0,0.0,68,-99.99,,,-99.99,PWS SA v1.10,2013-01-02 23:35:00,
2013-01-02 18:40:00,24.9,10.9,29.98,North,0,0.0,0.0,66,-99.99,,,-99.99,PWS SA v1.10,2013-01-02 23:40:00,
2013-01-02 18:45:00,24.9,11.1,29.99,North,0,0.0,0.0,67,-99.99,,,-99.99,PWS SA v1.10,2013-01-02 23:45:00,
2013-01-02 18:50:00,24.6,11.3,29.99,North,0,0.0,0.0,68,-99.99,,,-99.99,PWS SA v1.10,2013-01-02 23:50:00,
2013-01-02 18:55:00,24.6,10.7,29.99,North,0,0.0,0.0,66,-99.99,,,-99.99,PWS SA v1.10,2013-01-02 23:55:00,
2013-01-02 19:00:00,24.5,10.5,29.99,North,0,0.0,0.0,66,-99.99,,,-99.99,PWS SA v1.10,2013-01-03 00:00:00,
2013-01-02 19:05:00,24.0,10.5,29.99,North,0,0.0,0.0,67,-99.99,,,-99.99,PWS SA v1.10,2013-01-03 00:05:00,
2013-01-02 19:10:00,24.2,10.3,29.99,North,0,0.0,0.0,66,-99.99,,,-99.99,PWS SA v1.10,2013-01-03 00:10:00,
2013-01-02 19:15:00,24.3,10.0,29.99,North,0,0.0,0.0,65,-99.99,,,-99.99,PWS SA v1.10,2013-01-03 00:15:00,
2013-01-02 19:20:00,24.0,10.0,30.00,North,0,0.0,0.0,66,-99.99,,,-99.99,PWS SA v1.10,2013-01-03 00:20:00,
2013-01-02 19:25:00,23.7,9.6,30.00,North,0,0.0,0.0,66,-99.99,,,-99.99,PWS SA v1.10,2013-01-03 00:25:00,
2013-01-02 19:30:00,23.6,9.2,30.00,North,0,0.0,1.0,65,-99.99,,,-99.99,PWS SA v1.10,2013-01-03 00:30:00,
2013-01-02 19:40:00,23.6,8.4,30.00,North,0,0.0,1.0,63,-99.99,,,-99.99,PWS SA v1.10,2013-01-03 00:40:00,
2013-01-02 19:45:00,23.3,8.0,30.00,North,0,0.0,0.0,62,-99.99,,,-99.99,PWS SA v1.10,2013-01-03 00:45:00,
2013-01-02 19:50:00,22.4,6.9,30.00,NNW,329,3.4,3.4,61,-99.99,,,-99.99,PWS SA v1.10,2013-01-03 00:50:00,
2013-01-02 19:55:00,22.2,6.6,29.99,North,0,0.0,3.0,61,-99.99,,,-99.99,PWS SA v1.10,2013-01-03 00:55:00,
2013-01-02 20:00:00,22.7,7.1,30.01,North,0,0.0,3.0,61,-99.99,,,-99.99,PWS SA v1.10,2013-01-03 01:00:00,
2013-01-02 20:05:00,22.2,6.6,30.00,West,261,5.1,5.1,61,-99.99,,,-99.99,PWS SA v1.10,2013-01-03 01:05:00,
2013-01-02 20:10:00,22.6,7.2,30.00,North,0,0.0,5.0,62,-99.99,,,-99.99,PWS SA v1.10,2013-01-03 01:10:00,
2013-01-02 20:15:00,22.1,6.8,30.00,West,278,1.7,5.0,62,-99.99,,,-99.99,PWS SA v1.10,2013-01-03 01:15:00,
2013-01-02 20:20:00,22.1,6.9,30.00,North,0,0.0,6.0,62,-99.99,,,-99.99,PWS SA v1.10,2013-01-03 01:20:00,
2013-01-02 20:30:00,22.3,5.9,30.00,North,0,0.0,6.0,59,-99.99,,,-99.99,PWS SA v1.10,2013-01-03 01:30:00,
2013-01-02 20:40:00,21.6,4.9,30.00,NW,318,1.7,6.0,58,-99.99,,,-99.99,PWS SA v1.10,2013-01-03 01:40:00,
2013-01-02 20:45:00,21.7,6.8,30.00,North,0,0.0,3.0,63,-99.99,,,-99.99,PWS SA v1.10,2013-01-03 01:45:00,
2013-01-02 20:55:00,21.2,5.4,30.00,North,0,0.0,1.0,60,-99.99,,,-99.99,PWS SA v1.10,2013-01-03 01:55:00,
2013-01-02 21:00:00,21.0,4.4,30.01,North,0,0.0,3.0,58,-99.99,,,-99.99,PWS SA v1.10,2013-01-03 02:00:00,
2013-01-02 21:05:00,20.5,3.2,30.01,NW,314,5.1,11.0,56,-99.99,,,-99.99,PWS SA v1.10,2013-01-03 02:05:00,
2013-01-02 21:10:00,20.3,3.7,30.02,ENE,62,3.4,11.0,58,-99.99,,,-99.99,PWS SA v1.10,2013-01-03 02:10:00,
2013-01-02 21:15:00,20.2,2.8,30.02,North,0,0.0,11.0,56,-99.99,,,-99.99,PWS SA v1.10,2013-01-03 02:15:00,
2013-01-02 21:20:00,20.0,3.0,30.02,North,0,0.0,3.0,57,-99.99,,,-99.99,PWS SA v1.10,2013-01-03 02:20:00,
2013-01-02 21:25:00,19.7,2.4,30.02,North,0,0.0,3.0,56,-99.99,,,-99.99,PWS SA v1.10,2013-01-03 02:25:00,
2013-01-02 21:30:00,20.5,2.5,30.02,North,0,0.0,10.0,55,-99.99,,,-99.99,PWS SA v1.10,2013-01-03 02:30:00,
2013-01-02 21:40:00,19.6,2.6,30.02,North,0,0.0,10.0,57,-99.99,,,-99.99,PWS SA v1.10,2013-01-03 02:40:00,
2013-01-02 21:45:00,19.8,2.4,30.02,NW,319,3.4,6.0,56,-99.99,,,-99.99,PWS SA v1.10,2013-01-03 02:45:00,
2013-01-02 21:50:00,19.4,2.0,30.03,NNW,327,6.8,6.8,56,-99.99,,,-99.99,PWS SA v1.10,2013-01-03 02:50:00,
2013-01-02 21:55:00,19.6,2.5,30.02,North,0,0.0,6.0,57,-99.99,,,-99.99,PWS SA v1.10,2013-01-03 02:55:00,
2013-01-02 22:05:00,19.1,2.3,30.03,NNW,333,1.7,3.0,57,-99.99,,,-99.99,PWS SA v1.10,2013-01-03 03:05:00,
2013-01-02 22:10:00,19.0,2.0,30.03,NNE,22,5.1,5.1,57,-99.99,,,-99.99,PWS SA v1.10,2013-01-03 03:10:00,
2013-01-02 22:20:00,19.5,3.4,30.03,NNW,341,1.7,6.0,59,-99.99,,,-99.99,PWS SA v1.10,2013-01-03 03:20:00,
2013-01-02 22:25:00,18.2,1.9,30.03,NNW,331,3.4,6.0,58,-99.99,,,-99.99,PWS SA v1.10,2013-01-03 03:25:00,
2013-01-02 22:50:00,18.1,2.8,30.04,WNW,296,5.1,5.1,62,-99.99,,,-99.99,PWS SA v1.10,2013-01-03 03:50:00,
2013-01-02 22:55:00,18.8,3.0,30.03,North,0,0.0,5.0,60,-99.99,,,-99.99,PWS SA v1.10,2013-01-03 03:55:00,
2013-01-02 23:00:00,17.9,2.4,30.04,North,0,0.0,5.0,61,-99.99,,,-99.99,PWS SA v1.10,2013-01-03 04:00:00,
2013-01-02 23:05:00,17.8,1.9,30.03,North,0,0.0,3.0,60,-99.99,,,-99.99,PWS SA v1.10,2013-01-03 04:05:00,
2013-01-02 23:10:00,18.2,3.5,30.04,North,0,0.0,5.0,63,-99.99,,,-99.99,PWS SA v1.10,2013-01-03 04:10:00,
2013-01-02 23:15:00,18.0,2.7,30.04,North,0,0.0,5.0,61,-99.99,,,-99.99,PWS SA v1.10,2013-01-03 04:15:00,
2013-01-02 23:20:00,16.8,1.7,30.04,NW,306,6.8,6.8,62,-99.99,,,-99.99,PWS SA v1.10,2013-01-03 04:20:00,
2013-01-02 23:25:00,17.5,2.3,30.04,NNW,336,1.7,6.0,62,-99.99,,,-99.99,PWS SA v1.10,2013-01-03 04:25:00,
2013-01-02 23:30:00,17.3,2.9,30.03,North,0,0.0,6.0,64,-99.99,,,-99.99,PWS SA v1.10,2013-01-03 04:30:00,
2013-01-02 23:35:00,17.2,2.0,30.04,North,0,0.0,5.0,61,-99.99,,,-99.99,PWS SA v1.10,2013-01-03 04:35:00,
2013-01-02 23:40:00,17.3,3.0,30.04,North,0,0.0,5.0,64,-99.99,,,-99.99,PWS SA v1.10,2013-01-03 04:40:00,
2013-01-02 23:45:00,17.1,2.4,30.04,North,0,0.0,3.0,63,-99.99,,,-99.99,PWS SA v1.10,2013-01-03 04:45:00,
2013-01-02 23:50:00,17.3,2.7,30.04,North,0,0.0,1.0,63,-99.99,,,-99.99,PWS SA v1.10,2013-01-03 04:50:00,
2013-01-02 23:55:00,17.4,2.5,30.05,North,0,0.0,1.0,62,-99.99,,,-99.99,PWS SA v1.10,2013-01-03 04:55:00,